Flight Track Log - Related Links

Times and Time Zones

All times are in EST time to prevent confusion due to time zone crossing. See the AVN10 flight status page for this flight to view local times or setup timezone preferences in your user account.

Time Position Orientation Groundspeed Altitude Reporting Facility
EST Latitude Longitude Course Direction KTS MPH feet Rate Location/Type
Fri 11:34:00 PM -18.0146 168.1592 206° Southwest  Level FlightAware Approximate
Fri 11:35:00 PM -18.1196 168.1055 206° Southwest  Level FlightAware Approximate
Fri 11:36:00 PM -18.2247 168.0517 206° Southwest  Level FlightAware Approximate
Fri 11:37:00 PM -18.3297 167.9980 206° Southwest  Level FlightAware Approximate
Fri 11:38:00 PM -18.4347 167.9441 206° Southwest  Level FlightAware Approximate
Fri 11:39:00 PM -18.5397 167.8902 206° Southwest  Level FlightAware Approximate
Fri 11:40:00 PM -18.6281 167.8097 204° Southwest  Level Estimated
Fri 11:41:00 PM -18.7351 167.7602 204° Southwest  Level FlightAware Approximate
Fri 11:42:00 PM -18.8421 167.7107 204° Southwest  Level FlightAware Approximate
Fri 11:43:00 PM -18.9490 167.6611 204° Southwest  Level FlightAware Approximate
Fri 11:44:00 PM -19.0559 167.6114 204° Southwest  Level FlightAware Approximate
Fri 11:45:00 PM -19.1629 167.5616 204° Southwest  Level FlightAware Approximate
Fri 11:46:00 PM -19.2698 167.5118 204° Southwest  Level FlightAware Approximate
Fri 11:47:00 PM -19.3766 167.4620 204° Southwest  Level FlightAware Approximate
Fri 11:48:00 PM -19.4835 167.4120 204° Southwest  Level FlightAware Approximate
Fri 11:49:00 PM -19.5904 167.3620 204° Southwest  Level FlightAware Approximate
Fri 11:50:00 PM -19.6972 167.3120 204° Southwest  Level FlightAware Approximate
Fri 11:51:00 PM -19.8041 167.2619 204° Southwest  Level FlightAware Approximate
Fri 11:52:00 PM -19.9109 167.2117 204° Southwest  Level FlightAware Approximate
Fri 11:53:00 PM -20.0177 167.1614 204° Southwest  Level FlightAware Approximate
Fri 11:54:00 PM -20.1245 167.1111 204° Southwest  Level FlightAware Approximate
Fri 11:55:00 PM -20.2313 167.0607 204° Southwest  Level FlightAware Approximate
Fri 11:56:00 PM -20.3381 167.0102 204° Southwest  Level FlightAware Approximate
Fri 11:57:00 PM -20.4448 166.9596 204° Southwest  Level FlightAware Approximate
Fri 11:58:00 PM -20.5515 166.9090 204° Southwest  Level FlightAware Approximate
Fri 11:59:00 PM -20.6583 166.8584 204° Southwest  Level FlightAware Approximate
Sat 12:00:00 AM -20.7650 166.8076 204° Southwest  Level FlightAware Approximate
Sat 12:01:00 AM -20.8717 166.7568 204° Southwest  Level FlightAware Approximate
Sat 12:02:00 AM -20.9783 166.7059 204° Southwest  Level FlightAware Approximate
Sat 12:02:21 AM -20.8270 166.7730 224° Southwest 438 504 30,000  Level FlightAware ADS-B
Sat 12:03:00 AM -21.0632 166.6199 224° Southwest  Level Estimated
Sat 12:03:09 AM -20.9150 166.7310 204° Southwest 438 504 30,000  Level FlightAware ADS-B
Sat 12:04:01 AM -21.0110 166.6860 204° Southwest 436 502 30,000  Level FlightAware ADS-B
Sat 12:04:49 AM -21.1010 166.6430 204° Southwest 436 502 30,000  Level FlightAware ADS-B
Sat 12:05:38 AM -21.1910 166.6000 204° Southwest 436 502 30,000  Level FlightAware ADS-B
Sat 12:06:38 AM -21.3030 166.5470 204° Southwest 436 502 30,000  Level FlightAware ADS-B
Sat 12:07:20 AM -21.3800 166.5110 204° Southwest 435 501 30,000  Level FlightAware ADS-B
Sat 12:08:10 AM -21.4690 166.4680 204° Southwest 436 502 30,000  Level FlightAware ADS-B
Sat 12:08:49 AM -21.5450 166.4320 204° Southwest 436 502 30,000  Level FlightAware ADS-B
Sat 12:09:51 AM -21.6600 166.3770 204° Southwest 435 501 30,000  Level FlightAware ADS-B
Sat 12:10:44 AM -21.7570 166.3310 204° Southwest 435 501 30,000  Level FlightAware ADS-B
Sat 12:11:36 AM -21.8530 166.2850 204° Southwest 433 498 30,000  Level FlightAware ADS-B
Sat 12:12:36 AM -21.9630 166.2320 204° Southwest 432 497 30,000  Level FlightAware ADS-B
Sat 12:13:01 AM -22.0060 166.2060 209° Southwest 423 487 30,000  Level FlightAware ADS-B
Sat 12:13:56 AM -22.0840 166.1290 222° Southwest 415 478 30,000  Level FlightAware ADS-B
Sat 12:14:45 AM -22.1510 166.0590 224° Southwest 416 479 30,000  Level FlightAware ADS-B
Sat 12:15:08 AM -22.1840 166.0250 224° Southwest 417 480 30,000  Level FlightAware ADS-B
Sat 12:15:42 AM -22.2320 165.9750 224° Southwest 418 481 30,000  Level FlightAware ADS-B
Sat 12:16:37 AM -22.3070 165.8950 225° Southwest 418 481 30,000  Level FlightAware ADS-B
Sat 12:17:30 AM -22.3800 165.8190 224° Southwest 419 482 30,000  Level FlightAware ADS-B
Sat 12:18:30 AM -22.4650 165.7300 224° Southwest 419 482 30,000  Level FlightAware ADS-B
Sat 12:19:22 AM -22.5370 165.6540 224° Southwest 420 483 30,000  Level FlightAware ADS-B
Sat 12:19:46 AM -22.5700 165.6180 225° Southwest 420 483 30,000  Level FlightAware ADS-B
Sat 12:20:47 AM -22.6550 165.5280 224° Southwest 421 484 30,000  Level FlightAware ADS-B
Sat 12:21:35 AM -22.7220 165.4580 224° Southwest 421 484 30,000  Level FlightAware ADS-B
Sat 12:22:37 AM -22.8080 165.3660 225° Southwest 420 483 30,000  Level FlightAware ADS-B
Sat 12:23:37 AM -22.8910 165.2780 224° Southwest 418 481 30,000  Level FlightAware ADS-B
Sat 12:24:32 AM -22.9670 165.1970 224° Southwest 417 480 30,000  Level FlightAware ADS-B
Sat 12:25:28 AM -23.0440 165.1140 225° Southwest 416 479 30,000  Level FlightAware ADS-B
Sat 12:26:00 AM -23.0860 165.0700 224° Southwest 415 478 30,000  Level FlightAware ADS-B
Sat 12:26:53 AM -23.1600 164.9910 224° Southwest 415 478 30,000  Level FlightAware ADS-B
Sat 12:27:55 AM -23.2330 164.9140 224° Southwest 415 478 30,000  Level FlightAware ADS-B
Sat 12:28:43 AM -23.2890 164.8550 224° Southwest 415 478 30,000  Level FlightAware ADS-B
Sat 12:29:31 AM -23.3450 164.7960 224° Southwest 415 478 30,000  Level FlightAware ADS-B
Sat 12:30:07 AM -23.3880 164.7510 224° Southwest 415 478 30,000  Level FlightAware ADS-B
Sat 12:30:31 AM -23.4160 164.7220 224° Southwest 415 478 30,000  Level FlightAware ADS-B
Sat 12:31:07 AM -23.4580 164.6770 225° Southwest 415 478 30,000  Level FlightAware ADS-B
Sat 12:32:08 AM -23.5300 164.6020 224° Southwest 415 478 30,000  Level FlightAware ADS-B
Sat 12:33:09 AM -23.6010 164.5260 224° Southwest 415 478 30,000  Level FlightAware ADS-B
Sat 12:33:57 AM -23.6580 164.4670 223° Southwest 415 478 30,000  Level FlightAware ADS-B
Sat 12:34:22 AM -23.6870 164.4360 224° Southwest 415 478 30,000  Level FlightAware ADS-B
Sat 12:35:10 AM -23.7430 164.3770 224° Southwest 415 478 30,000  Level FlightAware ADS-B
Sat 12:35:22 AM -23.7570 164.3620 224° Southwest 415 478 30,000  Level FlightAware ADS-B
Sat 12:36:10 AM -23.8140 164.3020 224° Southwest 415 478 30,000  Level FlightAware ADS-B
Sat 12:36:47 AM -23.8570 164.2560 224° Southwest 415 478 30,000 117 Level FlightAware ADS-B
Sat 12:40:00 AM -24.1211 163.9636 225° Southwest  Level FlightAware Approximate
Sat 12:41:00 AM -24.2031 163.8724 225° Southwest  Level FlightAware Approximate
Sat 12:42:00 AM -24.2851 163.7812 225° Southwest  Level FlightAware Approximate
Sat 12:43:00 AM -24.3669 163.6898 225° Southwest  Level FlightAware Approximate
Sat 12:44:00 AM -24.4488 163.5983 225° Southwest  Level FlightAware Approximate
Sat 12:44:01 AM -24.5857 163.4370 222° Southwest 34,000  Level Aus ATC (Calculated)
Sat 12:44:06 AM -24.5857 163.4370 222° Southwest 34,000 66 Level Aus ATC (Calculated)
Sat 12:46:00 AM -24.7383 163.2684 225° Southwest  Level FlightAware Approximate
Sat 12:47:00 AM -24.8185 163.1794 225° Southwest  Level FlightAware Approximate
Sat 12:47:06 AM -24.8768 163.1132 222° Southwest 34,000  Level Aus ATC (Calculated)
Sat 12:48:00 AM -24.9840 162.9934 222° Southwest 34,000 70 Level Aus ATC (Calculated)
Sat 12:49:00 AM -24.9193 163.0967 55° Northeast  Level FlightAware Approximate
Sat 12:49:44 AM -25.1395 162.8190 222° Southwest 34,000  Level Aus ATC (Calculated)
Sat 12:50:00 AM -24.9840 162.9934 235° Southwest  Level FlightAware Approximate
Sat 12:51:00 AM -25.0400 162.9319 46° Northeast  Level FlightAware Approximate
Sat 12:52:00 AM -25.0173 162.9581 225° Southwest  Level FlightAware Approximate
Sat 12:53:00 AM -25.0963 162.8694 225° Southwest  Level FlightAware Approximate
Sat 12:54:00 AM -25.1753 162.7806 225° Southwest  Level FlightAware Approximate
Sat 12:55:00 AM -25.2543 162.6917 226° Southwest  Level FlightAware Approximate
Sat 12:56:00 AM -25.3331 162.6027 226° Southwest  Level FlightAware Approximate
Sat 12:57:00 AM -25.4120 162.5136 226° Southwest  Level FlightAware Approximate
Sat 12:58:00 AM -25.4907 162.4244 226° Southwest  Level FlightAware Approximate
Sat 12:59:00 AM -25.5695 162.3350 226° Southwest  Level FlightAware Approximate
Sat 01:00:00 AM -25.6481 162.2455 226° Southwest  Level FlightAware Approximate
Sat 01:01:00 AM -25.7267 162.1560 226° Southwest  Level FlightAware Approximate
Sat 01:02:00 AM -25.8053 162.0663 226° Southwest  Level FlightAware Approximate
Sat 01:03:00 AM -25.8838 161.9764 226° Southwest  Level FlightAware Approximate
Sat 01:04:00 AM -25.9622 161.8865 226° Southwest  Level FlightAware Approximate
Sat 01:05:00 AM -26.0406 161.7964 226° Southwest  Level FlightAware Approximate
Sat 01:06:00 AM -26.1189 161.7062 226° Southwest  Level FlightAware Approximate
Sat 01:07:00 AM -26.1972 161.6159 226° Southwest  Level FlightAware Approximate
Sat 01:08:00 AM -26.2754 161.5255 226° Southwest  Level FlightAware Approximate
Sat 01:09:00 AM -26.3536 161.4349 226° Southwest  Level FlightAware Approximate
Sat 01:10:00 AM -26.4317 161.3443 226° Southwest  Level FlightAware Approximate
Sat 01:10:18 AM -27.1944 160.4480 221° Southwest 34,000  Level Aus ATC (Calculated)
Sat 01:12:00 AM -27.3261 160.2915 227° Southwest  Level FlightAware Approximate
Sat 01:12:18 AM -27.3940 160.2106 220° Southwest 34,000  Level Aus ATC (Calculated)
Sat 01:13:34 AM -27.5019 160.0816 220° Southwest 34,000 124 Level Aus ATC (Calculated)
Sat 01:14:00 AM -27.5254 160.0535 227° Southwest  Level FlightAware Approximate
Sat 01:14:18 AM -27.5963 159.9686 220° Southwest 34,000  Level Aus ATC (Calculated)
Sat 01:15:09 AM -27.6788 159.8695 219° Southwest 34,000 133 Level Aus ATC (Calculated)
Sat 01:16:10 AM -27.8140 159.7066 219° Southwest 34,000 136 Level Aus ATC (Calculated)
Sat 01:18:00 AM -27.9558 159.5351 227° Southwest  Level FlightAware Approximate
Sat 01:19:00 AM -28.0331 159.4413 227° Southwest  Level FlightAware Approximate
Sat 01:19:56 AM -28.1444 159.3059 217° Southwest 34,000  Level Aus ATC (Calculated)
Sat 01:20:00 AM -28.1103 159.3474 227° Southwest  Level FlightAware Approximate
Sat 01:20:38 AM -28.1993 159.2389 217° Southwest 34,000  Level Aus ATC (Calculated)
Sat 01:21:00 AM -28.2266 159.2056 227° Southwest  Level FlightAware Approximate
Sat 01:22:00 AM -28.3120 159.1011 227° Southwest  Level FlightAware Approximate
Sat 01:23:00 AM -28.2296 159.2020 47° Northeast  Level FlightAware Approximate
Sat 01:23:31 AM -28.4582 158.9214 214° Southwest 36,000  Level Aus ATC (Calculated)
Sat 01:23:51 AM -28.4989 158.8712 214° Southwest 36,000 95 Level Aus ATC (Calculated)
Sat 01:25:00 AM -28.4043 158.9877 47° Northeast  Level FlightAware Approximate
Sat 01:26:00 AM -28.3220 159.0888 47° Northeast  Level FlightAware Approximate
Sat 01:27:00 AM -28.2396 159.1897 47° Northeast  Level FlightAware Approximate
Sat 01:28:00 AM -28.3220 159.0888 227° Southwest  Level FlightAware Approximate
Sat 01:28:45 AM -28.9458 158.3166 203° Southwest 36,000  Level Aus ATC (Calculated)
Sat 01:29:00 AM -28.2396 159.1897 47° Northeast  Level FlightAware Approximate
Sat 01:30:00 AM -28.8435 158.4442 48° Northeast  Level FlightAware Approximate
Sat 01:31:00 AM -28.7616 158.5462 47° Northeast  Level FlightAware Approximate
Sat 01:32:00 AM -28.6796 158.6480 47° Northeast  Level FlightAware Approximate
Sat 01:33:00 AM -28.5975 158.7496 47° Northeast  Level FlightAware Approximate
Sat 01:33:45 AM -29.3500 157.8083 163° South 36,000  Level Aus ATC (Calculated)
Sat 01:34:20 AM -29.3904 157.7572 155° Southeast 36,000 187 Level Aus ATC (Calculated)
Sat 01:35:50 AM -29.5514 157.5526 116° Southeast 36,000 197 Level Aus ATC (Calculated)
Sat 01:36:00 AM -29.2546 157.9288 48° Northeast  Level FlightAware Approximate
Sat 01:36:44 AM -29.6318 157.4501 101° East 36,000  Level Aus ATC (Calculated)
Sat 01:37:00 AM -29.6435 157.4292 227° Southwest  Level Estimated
Sat 01:38:00 AM -29.7345 157.3187 228° Southwest  Level FlightAware Approximate
Sat 01:39:00 AM -29.8155 157.2148 228° Southwest  Level FlightAware Approximate
Sat 01:40:00 AM -29.8964 157.1107 228° Southwest  Level FlightAware Approximate
Sat 01:41:00 AM -29.9773 157.0065 228° Southwest  Level FlightAware Approximate
Sat 01:41:39 AM -30.0327 156.9349 70° East 36,000  Level Aus ATC (Calculated)
Sat 01:43:00 AM -30.1416 156.7938 228° Southwest  Level FlightAware Approximate
Sat 01:44:00 AM -30.2222 156.6890 228° Southwest  Level FlightAware Approximate
Sat 01:44:28 AM -29.7157 157.9353 228° Southwest 452 520 38,000  Level Aus ATC (RADAR)
Sat 01:44:58 AM -29.7579 157.8876 224° Southwest 433 498 38,000  Level Aus ATC (RADAR)
Sat 01:45:33 AM -29.8083 157.8311 224° Southwest 432 497 38,000  Level Aus ATC (RADAR)
Sat 01:46:08 AM -29.8556 157.7759 225° Southwest 425 489 38,000  Level Aus ATC (RADAR)
Sat 01:46:58 AM -29.9235 157.6973 225° Southwest 420 483 38,000  Level Aus ATC (RADAR)
Sat 01:47:33 AM -29.9717 157.6419 225° Southwest 419 482 38,000  Level Aus ATC (RADAR)
Sat 01:48:03 AM -30.0137 157.5937 225° Southwest 421 484 38,000  Level Aus ATC (RADAR)
Sat 01:48:38 AM -30.0627 157.5375 225° Southwest 422 486 38,000  Level Aus ATC (RADAR)
Sat 01:49:13 AM -30.1107 157.4822 225° Southwest 421 484 38,000  Level Aus ATC (RADAR)
Sat 01:49:43 AM -30.1512 157.4352 225° Southwest 418 481 38,000  Level Aus ATC (RADAR)
Sat 01:50:18 AM -30.1981 157.3808 225° Southwest 415 478 38,000  Level Aus ATC (RADAR)
Sat 01:50:53 AM -30.2431 157.3281 225° Southwest 407 468 38,000  Level Aus ATC (RADAR)
Sat 01:51:27 AM -30.2879 157.2755 225° Southwest 401 461 38,000  Level Aus ATC (RADAR)
Sat 01:52:22 AM -30.3578 157.1929 226° Southwest 396 456 38,000  Level Aus ATC (RADAR)
Sat 01:52:42 AM -30.3831 157.1640 225° Southwest 395 455 38,000  Level Aus ATC (RADAR)
Sat 01:53:17 AM -30.4259 157.1119 226° Southwest 405 466 38,000 -71 Level Aus ATC (RADAR)
Sat 01:54:07 AM -30.4905 157.0355 226° Southwest 395 455 37,900  Descending Aus ATC (RADAR)
Sat 01:54:42 AM -30.5360 156.9826 225° Southwest 397 457 38,000  Climbing Aus ATC (RADAR)
Sat 01:55:22 AM -30.5881 156.9212 225° Southwest 399 459 37,900  Descending Aus ATC (RADAR)
Sat 01:55:47 AM -30.6206 156.8829 225° Southwest 400 460 38,000 100 Climbing Aus ATC (RADAR)
Sat 01:56:22 AM -30.6667 156.8287 225° Southwest 402 463 38,000  Level Aus ATC (RADAR)
Sat 01:57:17 AM -30.7404 156.7418 225° Southwest 410 472 38,000 -75 Level Aus ATC (RADAR)
Sat 01:57:42 AM -30.7740 156.7020 226° Southwest 413 475 37,900  Descending Aus ATC (RADAR)
Sat 01:58:27 AM -30.8336 156.6291 226° Southwest 415 478 38,000  Climbing Aus ATC (RADAR)
Sat 01:58:52 AM -30.8598 156.5825 237° Southwest 415 478 37,900  Descending Aus ATC (RADAR)
Sat 01:59:27 AM -30.8914 156.5167 241° Southwest 405 466 38,000 80 Climbing Aus ATC (RADAR)
Sat 02:00:07 AM -30.9281 156.4416 240° Southwest 398 458 38,000  Level Aus ATC (RADAR)
Sat 02:00:42 AM -30.9604 156.3759 240° Southwest 399 459 38,000 -86 Level Aus ATC (RADAR)
Sat 02:01:17 AM -30.9922 156.3095 241° Southwest 399 459 37,900  Descending Aus ATC (RADAR)
Sat 02:01:57 AM -31.0292 156.2342 240° Southwest 399 459 38,000 81 Climbing Aus ATC (RADAR)
Sat 02:02:31 AM -31.0680 156.1736 233° Southwest 396 456 38,000  Level Aus ATC (RADAR)
Sat 02:03:11 AM -31.1186 156.1082 228° Southwest 404 465 38,000  Level Aus ATC (RADAR)
Sat 02:03:36 AM -31.1501 156.0675 228° Southwest 405 466 38,000  Level Aus ATC (RADAR)
Sat 02:04:11 AM -31.1932 156.0101 229° Southwest 403 464 38,000  Level Aus ATC (RADAR)
Sat 02:04:51 AM -31.2486 155.9500 223° Southwest 407 468 38,000  Level Aus ATC (RADAR)
Sat 02:05:11 AM -31.2761 155.9192 224° Southwest 409 471 38,000  Level Aus ATC (RADAR)
Sat 02:05:46 AM -31.3233 155.8648 225° Southwest 409 471 38,000  Level Aus ATC (RADAR)
Sat 02:06:31 AM -31.3850 155.7937 225° Southwest 414 476 38,000 -86 Level Aus ATC (RADAR)
Sat 02:06:56 AM -31.4200 155.7537 224° Southwest 419 482 37,900  Descending Aus ATC (RADAR)
Sat 02:07:46 AM -31.4892 155.6741 224° Southwest 419 482 38,000 71 Climbing Aus ATC (RADAR)
Sat 02:08:21 AM -31.5375 155.6184 225° Southwest 419 482 38,000  Level Aus ATC (RADAR)
Sat 02:08:56 AM -31.5862 155.5624 224° Southwest 421 484 38,000  Level Aus ATC (RADAR)
Sat 02:09:31 AM -31.6354 155.5058 224° Southwest 424 488 38,000  Level Aus ATC (RADAR)
Sat 02:10:01 AM -31.6775 155.4570 225° Southwest 426 490 38,000  Level Aus ATC (RADAR)
Sat 02:10:19 AM -31.7046 155.4255 225° Southwest 431 496 38,000  Level FlightAware ADS-B (YPLB)
Sat 02:10:36 AM -31.7273 155.3995 225° Southwest 429 494 38,000  Level Aus ATC (RADAR)
Sat 02:11:00 AM -31.7640 155.3569 224° Southwest 433 498 38,000  Level FlightAware ADS-B (YPLB)
Sat 02:11:37 AM -31.8178 155.2943 225° Southwest 434 499 38,000  Level FlightAware ADS-B (YPLB)
Sat 02:12:22 AM -31.8520 155.2550 224° Southwest 434 499 38,000  Level FlightAware ADS-B
Sat 02:12:52 AM -31.9233 155.1720 225° Southwest 429 494 38,000  Level FlightAware ADS-B (YPLB)
Sat 02:13:22 AM -31.9631 155.1257 225° Southwest 429 494 38,000  Level FlightAware ADS-B (YPLB)
Sat 02:13:52 AM -32.0080 155.0734 225° Southwest 431 496 38,000  Level FlightAware ADS-B (YPLB)
Sat 02:14:45 AM -32.0822 154.9869 225° Southwest 434 499 38,000  Level Aus ATC (RADAR)
Sat 02:15:00 AM -32.1057 154.9591 225° Southwest 437 503 38,000  Level FlightAware ADS-B (YPLB)
Sat 02:15:32 AM -32.1504 154.9069 225° Southwest 438 504 38,000  Level FlightAware ADS-B (YPLB)
Sat 02:16:25 AM -32.2255 154.8190 225° Southwest 439 505 38,000  Level Aus ATC (RADAR)
Sat 02:16:32 AM -32.2385 154.8032 225° Southwest 440 506 38,000  Level FlightAware ADS-B (YPLB)
Sat 02:17:02 AM -32.2817 154.7522 225° Southwest 441 507 38,000  Level FlightAware ADS-B (YPLB)
Sat 02:17:37 AM -32.3210 154.7060 225° Southwest 442 509 38,000  Level FlightAware ADS-B
Sat 02:17:55 AM -32.3554 154.6658 225° Southwest 442 509 38,000  Level Aus ATC (RADAR)
Sat 02:18:15 AM -32.3841 154.6317 225° Southwest 440 506 38,000  Level Aus ATC (RADAR)
Sat 02:18:33 AM -32.4118 154.5985 225° Southwest 442 509 38,000  Level FlightAware ADS-B (YPLB)
Sat 02:19:13 AM -32.4705 154.5288 225° Southwest 443 510 38,000  Level FlightAware ADS-B (YPLB)
Sat 02:19:52 AM -32.5274 154.4614 225° Southwest 444 511 38,000  Level FlightAware ADS-B (YPLB)
Sat 02:20:23 AM -32.5716 154.4090 225° Southwest 444 511 38,000  Level FlightAware ADS-B (YPLB)
Sat 02:21:02 AM -32.6282 154.3417 225° Southwest 444 511 38,000  Level FlightAware ADS-B (YPLB)
Sat 02:21:40 AM -32.6814 154.2784 225° Southwest 444 511 38,000  Level FlightAware ADS-B (YPLB)
Sat 02:22:19 AM -32.7390 154.2097 225° Southwest 445 512 38,000  Level FlightAware ADS-B (YPLB)
Sat 02:22:50 AM -32.7850 154.1547 225° Southwest 446 513 38,000  Level FlightAware ADS-B (YPLB)
Sat 02:23:28 AM -32.8415 154.0872 225° Southwest 448 516 38,000  Level FlightAware ADS-B (YPLB)
Sat 02:23:58 AM -32.8850 154.0350 225° Southwest 447 514 38,000  Level FlightAware ADS-B (YPLB)
Sat 02:24:29 AM -32.9267 153.9846 225° Southwest 447 514 38,000  Level FlightAware ADS-B (YPLB)
Sat 02:24:59 AM -32.9668 153.9224 232° Southwest 443 510 38,000  Level FlightAware ADS-B (YPLB)
Sat 02:25:29 AM -32.9999 153.8666 232° Southwest 445 512 38,000  Level Aus ATC (RADAR)
Sat 02:25:39 AM -33.0141 153.8418 232° Southwest 446 513 38,000  Level FlightAware ADS-B (YPLB)
Sat 02:26:09 AM -33.0489 153.7822 235° Southwest 447 514 38,000  Level FlightAware ADS-B (YPLB)
Sat 02:26:40 AM -33.0853 153.7201 235° Southwest 448 516 38,000  Level FlightAware ADS-B (YPLB)
Sat 02:27:19 AM -33.1317 153.6414 235° Southwest 449 517 38,000  Level FlightAware ADS-B (YPLB)
Sat 02:27:50 AM -33.1687 153.5783 235° Southwest 449 517 38,000 98 Level FlightAware ADS-B (YPLB)
Sat 02:28:20 AM -33.2035 153.5192 235° Southwest 438 504 38,100  Climbing Aus ATC (RADAR)
Sat 02:28:28 AM -33.2140 153.5005 235° Southwest 449 517 38,000 -154 Descending FlightAware ADS-B (YPLB)
Sat 02:28:59 AM -33.2503 153.4385 235° Southwest 448 516 38,000 88 Level FlightAware ADS-B (YPLB)
Sat 02:29:36 AM -33.2921 153.3673 235° Southwest 434 499 38,100  Climbing Aus ATC (RADAR)
Sat 02:29:40 AM -33.2990 153.3547 235° Southwest 449 517 38,000 -176 Descending FlightAware ADS-B (YPLB)
Sat 02:30:10 AM -33.3354 153.2922 235° Southwest 449 517 38,000 -95 Level FlightAware ADS-B (YPLB)
Sat 02:30:43 AM -33.3730 153.2283 235° Southwest 449 517 37,900 -316 Descending Aus ATC (RADAR)
Sat 02:30:48 AM -33.3792 153.2168 235° Southwest 447 514 37,800 -2,400 Descending FlightAware ADS-B (YPLB)
Sat 02:31:18 AM -33.4153 153.1543 235° Southwest 448 516 36,500 -2,516 Descending FlightAware ADS-B (YPLB)
Sat 02:31:19 AM -33.4140 153.1572 235° Southwest 448 516 36,500 -2,800 Level Aus ATC (RADAR)
Sat 02:31:48 AM -33.4512 153.0918 235° Southwest 449 517 35,100 -3,246 Descending FlightAware ADS-B (YPLB)
Sat 02:32:20 AM -33.4879 153.0284 235° Southwest 461 531 33,200 -2,704 Descending FlightAware ADS-B (YPLB)
Sat 02:32:59 AM -33.5352 152.9464 235° Southwest 451 519 31,900 -2,174 Descending FlightAware ADS-B (YPLB)
Sat 02:33:29 AM -33.5709 152.8837 236° Southwest 446 513 30,700 -2,746 Descending FlightAware ADS-B (YPLB)
Sat 02:33:58 AM -33.5983 152.8203 243° Southwest 447 514 29,200 -2,700 Descending FlightAware ADS-B (YPLB)
Sat 02:34:29 AM -33.6198 152.7515 249° West 442 509 28,000 -2,113 Descending FlightAware ADS-B (YPLB)
Sat 02:35:09 AM -33.6489 152.6598 249° West 430 495 26,700 -1,950 Descending FlightAware ADS-B (YPLB)
Sat 02:35:49 AM -33.6769 152.5719 249° West 419 482 25,400 -1,971 Descending FlightAware ADS-B (YPLB)
Sat 02:36:19 AM -33.6981 152.5051 249° West 411 473 24,400 -1,900 Descending FlightAware ADS-B (YPLB)
Sat 02:36:49 AM -33.7179 152.4420 249° West 402 463 23,500 -1,967 Descending FlightAware ADS-B (YPLB)
Sat 02:37:20 AM -33.7372 152.3794 250° West 394 453 22,400 -2,400 Descending FlightAware ADS-B (YPLB)
Sat 02:37:59 AM -33.7694 152.3063 250° West 381 438 20,700 -2,542 Descending Aus ATC (RADAR)
Sat 02:38:19 AM -33.7921 152.2673 235° Southwest 391 450 19,900 -2,000 Descending FlightAware ADS-B (YPLB)
Sat 02:38:20 AM -33.7906 152.2699 235° Southwest 387 445 20,000 -2,276 Climbing Aus ATC (RADAR)
Sat 02:38:48 AM -33.8173 152.2134 241° Southwest 388 447 18,800 -2,542 Descending FlightAware ADS-B (YPLB)
Sat 02:39:19 AM -33.8357 152.1527 241° Southwest 388 447 17,500 -2,432 Descending Aus ATC (RADAR)
Sat 02:39:25 AM -33.8376 152.1409 241° Southwest 388 447 17,300 -2,250 Descending FlightAware ADS-B
Sat 02:39:59 AM -33.8566 152.0713 241° Southwest 378 435 16,000 -2,432 Descending Aus ATC (RADAR)
Sat 02:40:02 AM -33.8589 152.0633 241° Southwest 386 444 15,800 -2,471 Descending FlightAware ADS-B (YPLB)
Sat 02:40:33 AM -33.8767 152.0010 251° West 383 441 14,600 -2,262 Descending FlightAware ADS-B (YPLB)
Sat 02:41:03 AM -33.8931 151.9407 252° West 378 435 13,500 -2,206 Descending FlightAware ADS-B (YPLB)
Sat 02:41:41 AM -33.9133 151.8662 252° West 361 415 12,100 -2,174 Descending FlightAware ADS-B (YPLB)
Sat 02:42:12 AM -33.9291 151.8062 252° West 347 399 11,000 -1,672 Descending FlightAware ADS-B (YPLB)
Sat 02:42:42 AM -33.9433 151.7517 253° West 335 386 10,400 -774 Descending FlightAware ADS-B (YPLB)
Sat 02:43:14 AM -33.9552 151.7002 254° West 315 362 10,200 -450 Descending FlightAware ADS-B
Sat 02:43:22 AM -33.9585 151.6850 255° West 303 349 10,100 -632 Descending FlightAware ADS-B (YPLB)
Sat 02:43:33 AM -33.9623 151.6683 255° West 294 338 10,000 -600 Descending FlightAware ADS-B (YPLB)
Sat 02:43:42 AM -33.9657 151.6541 254° West 290 334 9,900 -1,154 Descending FlightAware ADS-B (YPLB)
Sat 02:43:59 AM -33.9717 151.6303 253° West 289 333 9,500 -1,500 Descending FlightAware ADS-B
Sat 02:44:02 AM -33.9734 151.6238 252° West 288 331 9,400 -1,286 Descending FlightAware ADS-B (YPLB)
Sat 02:44:13 AM -33.9778 151.6065 253° West 287 330 9,200 -1,667 Descending FlightAware ADS-B (YPLB)
Sat 02:44:20 AM -33.9801 151.5974 253° West 289 333 8,900 -2,118 Descending FlightAware ADS-B
Sat 02:44:30 AM -33.9820 151.5813 262° West 291 335 8,600 -900 Descending FlightAware ADS-B
Sat 02:44:40 AM -33.9797 151.5656 280° West 289 333 8,600  Level FlightAware ADS-B
Sat 02:44:43 AM -33.9783 151.5614 292° West 288 331 8,600 -600 Level FlightAware ADS-B
Sat 02:45:00 AM -33.9681 151.5410 301° West 282 325 8,400 -600 Descending FlightAware ADS-B
Sat 02:45:23 AM -33.9461 151.5087 309° West 288 331 8,200 -571 Descending FlightAware ADS-B (YPLB)
Sat 02:45:42 AM -33.9285 151.4853 312° West 297 342 8,000 -857 Descending FlightAware ADS-B (YPLB)
Sat 02:45:58 AM -33.9166 151.4704 314° West 295 339 7,700 -615 Descending FlightAware ADS-B
Sat 02:46:21 AM -33.8946 151.4425 314° West 279 321 7,600 -450 Descending FlightAware ADS-B
Sat 02:46:38 AM -33.8791 151.4227 313° West 278 320 7,400 -563 Descending FlightAware ADS-B
Sat 02:46:53 AM -33.8649 151.4043 313° West 283 326 7,300 -545 Descending FlightAware ADS-B (YPLB)
Sat 02:47:11 AM -33.8494 151.3841 313° West 288 331 7,100 -621 Descending FlightAware ADS-B
Sat 02:47:22 AM -33.8384 151.3699 313° West 289 333 7,000 -889 Descending FlightAware ADS-B (YPLB)
Sat 02:47:38 AM -33.8259 151.3535 312° West 289 333 6,700 -1,143 Descending FlightAware ADS-B
Sat 02:47:43 AM -33.8196 151.3452 313° West 288 331 6,600 -1,429 Descending FlightAware ADS-B (YPLB)
Sat 02:47:59 AM -33.8074 151.3294 313° West 287 330 6,200 -1,579 Descending FlightAware ADS-B
Sat 02:48:02 AM -33.8026 151.3230 312° West 286 329 6,100 -1,200 Descending FlightAware ADS-B (YPLB)
Sat 02:48:19 AM -33.7892 151.3060 313° West 284 327 5,800 -649 Descending FlightAware ADS-B
Sat 02:48:39 AM -33.7723 151.2843 313° West 267 307 5,700 -333 Descending FlightAware ADS-B
Sat 02:48:55 AM -33.7580 151.2660 313° West 258 297 5,600 -387 Descending FlightAware ADS-B
Sat 02:49:10 AM -33.7456 151.2503 313° West 249 287 5,500 -938 Descending FlightAware ADS-B
Sat 02:49:27 AM -33.7327 151.2337 313° West 249 287 5,100 -1,200 Descending FlightAware ADS-B
Sat 02:49:45 AM -33.7179 151.2144 313° West 256 295 4,800 -1,059 Descending FlightAware ADS-B
Sat 02:50:01 AM -33.7071 151.2004 313° West 258 297 4,500 -1,125 Descending FlightAware ADS-B
Sat 02:50:17 AM -33.6923 151.1812 313° West 259 298 4,200 -1,364 Descending FlightAware ADS-B
Sat 02:50:23 AM -33.6877 151.1749 311° West 259 298 4,000 -1,286 Descending FlightAware ADS-B
Sat 02:50:31 AM -33.6826 151.1644 300° West 256 295 3,900 -353 Descending FlightAware ADS-B
Sat 02:50:40 AM -33.6804 151.1521 283° West 246 283 3,900  Level FlightAware ADS-B
Sat 02:50:46 AM -33.6807 151.1451 267° West 238 274 3,900  Level FlightAware ADS-B
Sat 02:50:56 AM -33.6843 151.1328 251° West 231 266 3,900  Level FlightAware ADS-B
Sat 02:50:59 AM -33.6860 151.1297 236° Southwest 226 260 3,900  Level FlightAware ADS-B
Sat 02:51:06 AM -33.6909 151.1237 225° Southwest 224 258 3,900  Level FlightAware ADS-B
Sat 02:51:09 AM -33.6935 151.1218 212° Southwest 219 252 3,900  Level FlightAware ADS-B
Sat 02:51:17 AM -33.6994 151.1194 199° South 214 246 3,900  Level FlightAware ADS-B
Sat 02:51:22 AM -33.7073 151.1196 178° South 211 243 3,900  Level FlightAware ADS-B (YPLB)
Sat 02:51:28 AM -33.7116 151.1213 162° South 209 241 3,900  Level FlightAware ADS-B
Sat 02:51:34 AM -33.7106 151.1208 339° North 206 237 3,900  Level FlightAware ADS-B (YPLB)
Sat 02:51:41 AM -33.7252 151.1281 157° South 206 237 3,900  Level FlightAware ADS-B (YPLB)
Sat 02:51:44 AM -33.7256 151.1283 159° South 209 241 3,900  Level FlightAware ADS-B
Sat 02:52:00 AM -33.7365 151.1322 163° South 209 241 3,900 -171 Level FlightAware ADS-B
Sat 02:52:19 AM -33.7578 151.1391 165° South 206 237 3,800 -769 Descending FlightAware ADS-B
Sat 02:52:39 AM -33.7758 151.1435 168° South 206 237 3,400 -1,167 Descending FlightAware ADS-B
Sat 02:52:55 AM -33.7911 151.1472 169° South 191 220 3,100 -882 Descending FlightAware ADS-B
Sat 02:53:13 AM -33.8047 151.1507 168° South 175 201 2,900 -923 Descending FlightAware ADS-B
Sat 02:53:21 AM -33.8077 151.1514 167° South 173 199 2,700 -1,034 Descending FlightAware ADS-B
Sat 02:53:42 AM -33.8244 151.1557 168° South 154 177 2,400 -732 Descending FlightAware ADS-B
Sat 02:54:02 AM -33.8398 151.1598 168° South 141 162 2,200 -732 Descending FlightAware ADS-B
Sat 02:54:23 AM -33.8556 151.1639 168° South 137 158 1,900 -833 Descending FlightAware ADS-B (YPLB)
Sat 02:54:38 AM -33.8631 151.1658 168° South 136 157 1,700 -667 Descending FlightAware ADS-B
Sat 02:54:50 AM -33.8706 151.1678 168° South 136 157 1,600 -600 Descending FlightAware ADS-B
Sat 02:55:08 AM -33.8810 151.1705 168° South 133 153 1,400 -706 Descending FlightAware ADS-B
Sat 02:55:24 AM -33.8909 151.1731 168° South 134 154 1,200 -774 Descending FlightAware ADS-B (YPLB)
Sat 02:55:39 AM -33.9002 151.1755 168° South 134 154 1,000 -818 Descending FlightAware ADS-B
Sat 02:55:46 AM -33.8927 151.1736 348° North 132 152 900 -643 Descending FlightAware ADS-B (YPLB)
Sat 02:56:07 AM -33.9152 151.1794 168° South 135 155 700 -667 Descending FlightAware ADS-B
Sat 02:56:22 AM -33.9250 151.1819 168° South 136 157 500 -750 Descending FlightAware ADS-B
Sat 02:56:39 AM -33.9368 151.1849 168° South 137 158 300 -706 Descending FlightAware ADS-B
Sat 02:57:21 AM -33.9610 151.1910 168° South 105 121 -429 Descending FlightAware ADS-B

Login

Don't have an account? Register now (free) for customized features, flight alerts, and more!